createdAt,value
2019-02-17T00:00:40.154Z,73.80
2019-02-17T00:03:08.793Z,74.00
2019-02-17T00:05:37.456Z,73.70
2019-02-17T00:08:06.208Z,73.50
2019-02-17T00:10:34.954Z,73.60
2019-02-17T00:13:03.615Z,73.40
2019-02-17T00:15:32.332Z,73.30
2019-02-17T00:18:00.962Z,73.00
2019-02-17T00:20:29.739Z,73.10
2019-02-17T00:22:58.445Z,73.10
2019-02-17T00:25:27.117Z,73.20
2019-02-17T00:27:55.768Z,73.30
2019-02-17T00:30:24.455Z,73.40
2019-02-17T00:32:53.022Z,73.40
2019-02-17T00:35:21.663Z,73.60
2019-02-17T00:37:50.291Z,74.10
2019-02-17T00:40:18.927Z,74.70
2019-02-17T00:42:47.579Z,74.80
2019-02-17T00:45:16.280Z,74.80
2019-02-17T00:47:44.954Z,74.90
2019-02-17T00:50:13.609Z,74.80
2019-02-17T00:52:42.303Z,74.30
2019-02-17T00:55:10.949Z,73.80
2019-02-17T00:57:39.596Z,73.80
2019-02-17T01:00:12.220Z,73.60
2019-02-17T01:02:40.792Z,73.80
2019-02-17T01:05:09.455Z,73.30
2019-02-17T01:07:38.157Z,73.30
2019-02-17T01:10:08.238Z,73.00
2019-02-17T01:12:36.892Z,72.60
2019-02-17T01:15:11.438Z,71.90
2019-02-17T01:17:40.094Z,71.60
2019-02-17T01:20:09.934Z,70.90
2019-02-17T01:22:38.640Z,70.10
2019-02-17T01:25:10.840Z,69.50
2019-02-17T01:27:39.469Z,68.70
2019-02-17T01:30:11.265Z,68.40
2019-02-17T01:32:39.914Z,69.10
2019-02-17T01:35:08.759Z,70.20
2019-02-17T01:37:37.385Z,70.20
2019-02-17T01:40:08.995Z,70.40
2019-02-17T01:42:37.647Z,71.10
2019-02-17T01:45:08.860Z,71.80
2019-02-17T01:47:37.508Z,72.20
2019-02-17T01:50:08.560Z,71.90
2019-02-17T01:52:37.239Z,71.50
2019-02-17T01:55:07.799Z,71.50
2019-02-17T01:57:36.457Z,71.80
2019-02-17T02:00:11.067Z,71.80
2019-02-17T02:02:39.703Z,71.60
2019-02-17T02:05:08.361Z,70.60
2019-02-17T02:07:37.063Z,70.30
2019-02-17T02:10:08.521Z,70.50
2019-02-17T02:12:37.935Z,70.70
2019-02-17T02:15:11.191Z,70.50
2019-02-17T02:17:40.122Z,70.10
2019-02-17T02:20:13.105Z,70.20
2019-02-17T02:22:41.825Z,70.60
2019-02-17T02:25:10.479Z,71.00
2019-02-17T02:27:39.053Z,71.00
2019-02-17T02:30:10.664Z,71.60
2019-02-17T02:32:39.328Z,71.50
2019-02-17T02:35:07.958Z,71.40
2019-02-17T02:37:36.663Z,71.50
2019-02-17T02:40:06.215Z,72.00
2019-02-17T02:42:34.871Z,71.90
2019-02-17T02:45:03.987Z,71.60
2019-02-17T02:47:32.622Z,71.40
2019-02-17T02:50:01.281Z,70.90
2019-02-17T02:52:29.892Z,70.80
2019-02-17T02:54:58.541Z,70.70
2019-02-17T02:57:27.191Z,70.30
2019-02-17T02:59:55.878Z,70.50
2019-02-17T03:02:24.529Z,71.40
2019-02-17T03:04:53.185Z,71.50
2019-02-17T03:07:21.883Z,71.20
2019-02-17T03:09:50.540Z,71.10
2019-02-17T03:12:19.194Z,71.20
2019-02-17T03:14:48.556Z,71.40
2019-02-17T03:17:17.206Z,71.90
2019-02-17T03:19:45.879Z,72.20
2019-02-17T03:22:14.538Z,72.90
2019-02-17T03:24:43.183Z,73.10
2019-02-17T03:27:11.818Z,73.00
2019-02-17T03:29:40.437Z,72.70
2019-02-17T03:32:09.119Z,72.60
2019-02-17T03:34:37.738Z,72.90
2019-02-17T03:37:06.441Z,72.50
2019-02-17T03:39:35.070Z,72.70
2019-02-17T03:42:03.716Z,73.10
2019-02-17T03:44:32.427Z,72.50
2019-02-17T03:47:01.061Z,73.60
2019-02-17T03:49:29.702Z,73.50
2019-02-17T03:51:58.434Z,73.50
2019-02-17T03:54:27.017Z,73.60
2019-02-17T03:56:55.657Z,73.90
2019-02-17T03:59:24.358Z,74.10
2019-02-17T04:01:52.985Z,73.70
2019-02-17T04:04:21.560Z,73.60
2019-02-17T04:06:50.245Z,74.00
2019-02-17T04:09:18.828Z,73.90
2019-02-17T04:11:47.476Z,74.00
2019-02-17T04:14:16.116Z,73.80
2019-02-17T04:16:45.361Z,74.20
2019-02-17T04:19:13.930Z,74.50
2019-02-17T04:21:42.649Z,74.50
2019-02-17T04:24:11.272Z,74.30
2019-02-17T04:26:39.928Z,74.10
2019-02-17T04:29:10.306Z,74.10
2019-02-17T04:31:38.910Z,73.90
2019-02-17T04:34:07.562Z,74.30
2019-02-17T04:36:36.246Z,74.90
2019-02-17T04:39:05.687Z,75.70
2019-02-17T04:41:34.356Z,75.00
2019-02-17T04:44:02.917Z,75.50
2019-02-17T04:46:31.577Z,75.70
2019-02-17T04:49:00.206Z,76.10
2019-02-17T04:51:28.916Z,76.30
2019-02-17T04:53:57.587Z,77.20
2019-02-17T04:56:26.233Z,77.40
2019-02-17T04:58:54.940Z,76.60
2019-02-17T05:01:23.603Z,76.20
2019-02-17T05:03:52.245Z,76.10
2019-02-17T05:06:20.949Z,76.00
2019-02-17T05:08:49.683Z,76.50
2019-02-17T05:11:18.337Z,76.10
2019-02-17T05:13:47.028Z,75.60
2019-02-17T05:16:15.690Z,75.60
2019-02-17T05:18:44.972Z,75.80
2019-02-17T05:21:13.607Z,75.40
2019-02-17T05:23:42.161Z,75.50
2019-02-17T05:26:10.686Z,75.80
2019-02-17T05:28:39.383Z,75.60
2019-02-17T05:31:08.024Z,75.10
2019-02-17T05:33:36.673Z,75.40
2019-02-17T05:36:05.323Z,75.20
2019-02-17T05:38:33.876Z,75.40
2019-02-17T05:41:02.514Z,76.00
2019-02-17T05:43:31.216Z,76.70
2019-02-17T05:45:59.878Z,77.20
2019-02-17T05:48:29.451Z,76.90
2019-02-17T05:50:58.533Z,77.10
2019-02-17T05:53:27.179Z,77.40
2019-02-17T05:55:55.828Z,77.40
2019-02-17T05:58:24.549Z,77.30
2019-02-17T06:01:03.034Z,76.90
2019-02-17T06:03:23.403Z,76.80
2019-02-17T06:05:52.035Z,76.60
2019-02-17T06:08:20.694Z,76.40
2019-02-17T06:10:49.351Z,76.10
2019-02-17T06:13:18.037Z,76.30
2019-02-17T06:15:46.688Z,76.40
2019-02-17T06:18:15.317Z,76.20
2019-02-17T06:20:44.877Z,76.10
2019-02-17T06:23:13.536Z,75.80
2019-02-17T06:25:42.093Z,75.90
2019-02-17T06:28:10.829Z,75.60
2019-02-17T06:30:39.464Z,75.10
2019-02-17T06:33:08.099Z,74.70
2019-02-17T06:35:36.741Z,74.80
2019-02-17T06:38:05.391Z,74.60
2019-02-17T06:40:34.018Z,74.40
2019-02-17T06:43:02.727Z,73.70
2019-02-17T06:45:31.385Z,74.00
2019-02-17T06:48:00.022Z,73.80
2019-02-17T06:50:28.712Z,73.40
2019-02-17T06:52:57.372Z,71.30
2019-02-17T06:55:27.588Z,67.70
2019-02-17T06:57:56.400Z,64.00
2019-02-17T07:00:32.610Z,59.10
2019-02-17T07:03:01.253Z,56.60
2019-02-17T07:05:31.485Z,56.40
2019-02-17T07:08:00.156Z,56.90
2019-02-17T07:10:28.838Z,55.90
2019-02-17T07:12:57.505Z,55.90
2019-02-17T07:15:26.137Z,57.10
2019-02-17T07:17:54.842Z,57.70
2019-02-17T07:20:23.505Z,57.10
2019-02-17T07:22:52.811Z,54.90
2019-02-17T07:25:29.845Z,54.10
2019-02-17T07:27:51.814Z,52.80
2019-02-17T07:30:20.413Z,53.30
2019-02-17T07:32:49.112Z,52.00
2019-02-17T07:35:17.749Z,50.40
2019-02-17T07:37:46.404Z,47.50
2019-02-17T07:40:15.111Z,44.30
2019-02-17T07:42:43.814Z,42.80
2019-02-17T07:45:12.408Z,41.60
2019-02-17T07:47:41.132Z,39.00
2019-02-17T07:50:10.701Z,38.40
2019-02-17T07:52:39.338Z,37.30
2019-02-17T07:55:10.258Z,36.70
2019-02-17T07:57:38.890Z,35.30
2019-02-17T08:00:10.368Z,33.20
2019-02-17T08:02:39.595Z,32.60
2019-02-17T08:05:09.200Z,31.10
2019-02-17T08:07:37.870Z,31.30
2019-02-17T08:10:09.078Z,29.90
2019-02-17T08:12:37.717Z,29.40
2019-02-17T08:15:08.866Z,29.30
2019-02-17T08:17:37.575Z,27.70
2019-02-17T08:20:09.023Z,28.00
2019-02-17T08:22:37.657Z,27.90
2019-02-17T08:25:08.316Z,27.90
2019-02-17T08:27:36.970Z,27.50
2019-02-17T08:30:13.294Z,26.80
2019-02-17T08:32:43.982Z,27.20
2019-02-17T08:35:12.172Z,25.90
2019-02-17T08:37:40.898Z,25.80
2019-02-17T08:40:10.606Z,25.10
2019-02-17T08:42:39.237Z,24.40
2019-02-17T08:45:09.744Z,23.90
2019-02-17T08:47:38.385Z,23.10
2019-02-17T08:50:10.085Z,23.20
2019-02-17T08:52:38.795Z,23.80
2019-02-17T08:55:09.633Z,23.80
2019-02-17T08:57:38.307Z,23.20
2019-02-17T09:00:12.640Z,22.80
2019-02-17T09:02:41.296Z,21.80
2019-02-17T09:05:09.877Z,22.70
2019-02-17T09:07:38.520Z,23.20
2019-02-17T09:10:10.276Z,21.50
2019-02-17T09:12:38.950Z,21.20
2019-02-17T09:15:12.438Z,21.00
2019-02-17T09:17:41.100Z,21.10
2019-02-17T09:20:11.310Z,20.50
2019-02-17T09:22:39.992Z,20.10
2019-02-17T09:25:10.722Z,20.10
2019-02-17T09:27:39.436Z,19.70
2019-02-17T09:30:11.291Z,20.20
2019-02-17T09:32:39.950Z,18.70
2019-02-17T09:35:08.594Z,18.30
2019-02-17T09:37:37.289Z,18.70
2019-02-17T09:40:09.045Z,19.70
2019-02-17T09:42:37.685Z,18.70
2019-02-17T09:45:11.990Z,19.00
2019-02-17T09:47:40.657Z,19.80
2019-02-17T09:50:13.560Z,19.10
2019-02-17T09:52:42.347Z,19.40
2019-02-17T09:55:11.321Z,18.60
2019-02-17T09:57:39.992Z,18.20
2019-02-17T10:00:13.929Z,18.60
2019-02-17T10:02:42.587Z,18.90
2019-02-17T10:05:12.123Z,19.30
2019-02-17T10:07:40.847Z,18.00
2019-02-17T10:10:14.721Z,18.00
2019-02-17T10:12:43.407Z,17.30
2019-02-17T10:15:13.501Z,17.10
2019-02-17T10:17:42.184Z,17.50
2019-02-17T10:20:12.841Z,18.00
2019-02-17T10:22:41.556Z,18.50
2019-02-17T10:25:10.618Z,19.20
2019-02-17T10:27:39.270Z,19.80
2019-02-17T10:30:14.887Z,20.30
2019-02-17T10:32:43.533Z,20.40
2019-02-17T10:35:12.209Z,20.90
2019-02-17T10:37:40.931Z,20.90
2019-02-17T10:40:17.721Z,20.50
2019-02-17T10:42:46.460Z,20.40
2019-02-17T10:45:15.142Z,20.90
2019-02-17T10:47:43.807Z,20.40
2019-02-17T10:50:13.227Z,20.30
2019-02-17T10:52:41.881Z,19.60
2019-02-17T10:55:12.535Z,19.90
2019-02-17T10:57:41.244Z,21.20
2019-02-17T11:00:13.664Z,22.10
2019-02-17T11:02:47.137Z,23.60
2019-02-17T11:05:12.689Z,23.50
2019-02-17T11:07:41.336Z,23.30
2019-02-17T11:10:11.393Z,23.00
2019-02-17T11:12:40.107Z,22.20
2019-02-17T11:15:19.289Z,22.30
2019-02-17T11:17:48.037Z,22.50
2019-02-17T11:20:16.679Z,22.40
2019-02-17T11:22:45.345Z,23.60
2019-02-17T11:25:14.067Z,22.80
2019-02-17T11:27:42.708Z,22.80
2019-02-17T11:30:17.254Z,22.80
2019-02-17T11:32:45.901Z,23.00
2019-02-17T11:35:14.565Z,23.40
2019-02-17T11:37:45.112Z,22.20
2019-02-17T11:40:13.666Z,21.60
2019-02-17T11:42:42.311Z,20.90
2019-02-17T11:45:13.706Z,20.70
2019-02-17T11:47:42.363Z,21.00
2019-02-17T11:50:11.012Z,21.30
2019-02-17T11:52:39.708Z,20.90
2019-02-17T11:55:13.611Z,21.30
2019-02-17T11:57:42.255Z,21.10
2019-02-17T12:00:22.039Z,21.10
2019-02-17T12:02:50.695Z,21.60
2019-02-17T12:05:19.338Z,21.20
2019-02-17T12:07:48.045Z,20.50
2019-02-17T12:10:16.698Z,20.00
2019-02-17T12:12:45.346Z,19.40
2019-02-17T12:15:14.555Z,19.70
2019-02-17T12:17:43.203Z,19.80
2019-02-17T12:20:34.706Z,19.60
2019-02-17T12:23:07.655Z,20.00
2019-02-17T12:25:37.887Z,20.20
2019-02-17T12:28:08.221Z,20.80
2019-02-17T12:30:37.902Z,21.10
2019-02-17T12:33:06.555Z,21.70
2019-02-17T12:35:35.964Z,21.90
2019-02-17T12:38:04.601Z,21.50
2019-02-17T12:40:33.259Z,21.40
2019-02-17T12:43:01.976Z,21.80
2019-02-17T12:45:30.641Z,21.00
2019-02-17T12:47:59.280Z,21.80
2019-02-17T12:50:27.988Z,22.50
2019-02-17T12:52:56.625Z,22.90
2019-02-17T12:55:25.296Z,22.60
2019-02-17T12:57:54.009Z,22.90
2019-02-17T13:00:22.669Z,23.80
2019-02-17T13:02:51.309Z,24.30
2019-02-17T13:05:20.027Z,24.90
2019-02-17T13:07:48.675Z,25.50
2019-02-17T13:10:17.349Z,25.50
2019-02-17T13:12:46.107Z,26.50
2019-02-17T13:15:15.825Z,27.10
2019-02-17T13:17:44.477Z,27.40
2019-02-17T13:20:14.374Z,27.70
2019-02-17T13:22:43.037Z,27.80
2019-02-17T13:25:16.617Z,28.40
2019-02-17T13:27:45.349Z,28.00
2019-02-17T13:30:22.630Z,28.50
2019-02-17T13:32:51.337Z,27.70
2019-02-17T13:35:19.993Z,27.90
2019-02-17T13:37:49.591Z,28.10
2019-02-17T13:40:18.280Z,28.40
2019-02-17T13:42:47.066Z,27.60
2019-02-17T13:45:17.205Z,27.60
2019-02-17T13:47:45.889Z,28.50
2019-02-17T13:50:17.672Z,28.40
2019-02-17T13:52:46.255Z,29.20
2019-02-17T13:55:15.005Z,28.70
2019-02-17T13:57:43.576Z,29.30
2019-02-17T14:00:19.448Z,28.50
2019-02-17T14:02:48.103Z,28.80
2019-02-17T14:05:16.741Z,29.00
2019-02-17T14:07:45.443Z,29.10
2019-02-17T14:10:14.498Z,29.40
2019-02-17T14:12:43.136Z,29.80
2019-02-17T14:15:19.582Z,30.00
2019-02-17T14:17:48.159Z,30.00
2019-02-17T14:20:16.800Z,30.00
2019-02-17T14:22:45.533Z,30.00
2019-02-17T14:25:14.187Z,30.00
2019-02-17T14:27:42.820Z,30.30
2019-02-17T14:30:13.577Z,31.20
2019-02-17T14:32:42.218Z,31.90
2019-02-17T14:35:10.872Z,31.60
2019-02-17T14:37:39.566Z,31.70
2019-02-17T14:40:13.213Z,30.70
2019-02-17T14:42:41.796Z,30.50
2019-02-17T14:45:12.660Z,30.70
2019-02-17T14:47:41.302Z,30.80
2019-02-17T14:50:10.381Z,30.90
2019-02-17T14:52:39.066Z,31.50
2019-02-17T14:55:12.026Z,31.30
2019-02-17T14:57:40.665Z,31.20
2019-02-17T15:00:17.078Z,32.30
2019-02-17T15:02:45.739Z,32.00
2019-02-17T15:05:14.410Z,32.10
2019-02-17T15:07:43.111Z,32.10
2019-02-17T15:10:13.035Z,32.30
2019-02-17T15:12:41.701Z,32.20
2019-02-17T15:15:15.347Z,31.60
2019-02-17T15:17:44.013Z,31.50
2019-02-17T15:20:18.589Z,31.80
2019-02-17T15:22:47.299Z,32.50
2019-02-17T15:25:15.947Z,33.00
2019-02-17T15:27:44.594Z,32.50
2019-02-17T15:30:15.164Z,33.10
2019-02-17T15:32:43.819Z,32.80
2019-02-17T15:35:12.516Z,32.70
2019-02-17T15:37:41.192Z,33.50
2019-02-17T15:40:14.886Z,32.80
2019-02-17T15:42:44.368Z,33.00
2019-02-17T15:45:14.057Z,33.40
2019-02-17T15:47:42.701Z,33.40
2019-02-17T15:50:13.509Z,33.70
2019-02-17T15:52:42.199Z,34.90
2019-02-17T15:55:12.446Z,35.60
2019-02-17T15:57:41.098Z,36.00
2019-02-17T16:00:15.065Z,36.40
2019-02-17T16:02:43.724Z,37.20
2019-02-17T16:05:12.371Z,37.60
2019-02-17T16:07:41.081Z,38.30
2019-02-17T16:10:16.825Z,38.70
2019-02-17T16:12:45.563Z,39.00
2019-02-17T16:15:23.132Z,39.50
2019-02-17T16:17:51.829Z,39.90
2019-02-17T16:20:20.470Z,40.70
2019-02-17T16:22:49.131Z,41.10
2019-02-17T16:25:17.841Z,41.80
2019-02-17T16:27:46.483Z,42.30
2019-02-17T16:30:22.991Z,42.50
2019-02-17T16:32:51.637Z,43.70
2019-02-17T16:35:20.306Z,44.50
2019-02-17T16:37:49.013Z,44.60
2019-02-17T16:40:18.580Z,45.30
2019-02-17T16:42:47.239Z,46.00
2019-02-17T16:45:16.773Z,46.50
2019-02-17T16:47:45.540Z,46.60
2019-02-17T16:50:20.347Z,47.00
2019-02-17T16:52:49.059Z,47.10
2019-02-17T16:55:17.699Z,47.10
2019-02-17T16:57:46.451Z,47.30
2019-02-17T17:00:19.191Z,47.60
2019-02-17T17:02:48.038Z,47.70
2019-02-17T17:05:16.805Z,48.00
2019-02-17T17:07:45.538Z,48.50
2019-02-17T17:10:14.177Z,49.30
2019-02-17T17:12:42.844Z,50.00
2019-02-17T17:15:11.565Z,50.30
2019-02-17T17:17:40.216Z,50.80
2019-02-17T17:20:11.376Z,50.50
2019-02-17T17:22:40.096Z,51.10
2019-02-17T17:25:10.561Z,50.90
2019-02-17T17:27:41.303Z,50.50
2019-02-17T17:30:16.877Z,50.50
2019-02-17T17:32:45.523Z,50.90
2019-02-17T17:35:14.181Z,50.80
2019-02-17T17:37:42.974Z,51.10
2019-02-17T17:40:18.421Z,51.10
2019-02-17T17:42:47.131Z,51.20
2019-02-17T17:45:18.263Z,51.30
2019-02-17T17:47:46.942Z,51.50
2019-02-17T17:50:16.343Z,51.70
2019-02-17T17:52:45.034Z,52.00
2019-02-17T17:55:13.870Z,52.10
2019-02-17T17:57:42.587Z,52.60
2019-02-17T18:00:20.427Z,52.50
2019-02-17T18:02:49.116Z,52.50
2019-02-17T18:05:17.771Z,52.60
2019-02-17T18:07:46.418Z,52.70
2019-02-17T18:10:16.144Z,52.80
2019-02-17T18:12:44.791Z,53.00
2019-02-17T18:15:15.234Z,53.30
2019-02-17T18:17:53.431Z,53.30
2019-02-17T18:20:14.430Z,53.50
2019-02-17T18:22:43.086Z,53.90
2019-02-17T18:25:13.003Z,53.90
2019-02-17T18:27:41.769Z,53.90
2019-02-17T18:30:16.696Z,54.40
2019-02-17T18:32:45.688Z,55.20
2019-02-17T18:35:19.702Z,55.60
2019-02-17T18:37:44.680Z,55.80
2019-02-17T18:40:15.352Z,56.40
2019-02-17T18:42:44.029Z,56.00
2019-02-17T18:45:16.602Z,56.10
2019-02-17T18:47:45.243Z,56.30
2019-02-17T18:50:15.961Z,56.30
2019-02-17T18:52:44.696Z,56.60
2019-02-17T18:55:14.058Z,56.90
2019-02-17T18:57:49.507Z,57.10
2019-02-17T19:00:24.643Z,57.60
2019-02-17T19:02:53.300Z,58.00
2019-02-17T19:05:31.507Z,57.20
2019-02-17T19:07:53.861Z,57.40
2019-02-17T19:10:22.523Z,57.80
2019-02-17T19:12:51.192Z,57.60
2019-02-17T19:15:21.586Z,57.90
2019-02-17T19:17:50.243Z,57.60
2019-02-17T19:20:36.737Z,57.80
2019-02-17T19:23:05.388Z,57.40
2019-02-17T19:25:34.047Z,57.50
2019-02-17T19:28:03.736Z,57.60
2019-02-17T19:30:32.720Z,57.10
2019-02-17T19:33:01.376Z,56.60
2019-02-17T19:35:30.088Z,56.40
2019-02-17T19:37:58.735Z,56.20
2019-02-17T19:40:27.392Z,56.60
2019-02-17T19:42:56.101Z,56.10
2019-02-17T19:45:24.756Z,56.60
2019-02-17T19:47:53.411Z,56.50
2019-02-17T19:50:22.138Z,56.80
2019-02-17T19:52:50.910Z,56.70
2019-02-17T19:55:19.568Z,56.30
2019-02-17T19:57:48.287Z,56.10
2019-02-17T20:00:18.434Z,56.40
2019-02-17T20:03:03.401Z,55.60
2019-02-17T20:05:35.260Z,55.80
2019-02-17T20:08:03.928Z,56.00
2019-02-17T20:10:32.641Z,56.20
2019-02-17T20:13:01.295Z,56.10
2019-02-17T20:15:31.516Z,56.00
2019-02-17T20:18:00.336Z,56.20
2019-02-17T20:20:28.983Z,56.30
2019-02-17T20:22:57.653Z,55.80
2019-02-17T20:25:26.363Z,56.20
2019-02-17T20:27:55.015Z,56.50
2019-02-17T20:30:23.669Z,56.50
2019-02-17T20:32:52.385Z,55.90
2019-02-17T20:35:21.035Z,55.80
2019-02-17T20:37:49.701Z,55.90
2019-02-17T20:40:19.027Z,56.20
2019-02-17T20:42:47.676Z,56.40
2019-02-17T20:45:16.346Z,56.40
2019-02-17T20:47:45.072Z,56.50
2019-02-17T20:50:16.084Z,56.50
2019-02-17T20:52:44.726Z,56.70
2019-02-17T20:55:14.233Z,57.20
2019-02-17T20:57:42.887Z,57.20
2019-02-17T21:00:13.672Z,57.60
2019-02-17T21:02:42.477Z,58.10
2019-02-17T21:05:11.233Z,58.20
2019-02-17T21:07:39.870Z,58.80
2019-02-17T21:10:15.883Z,58.80
2019-02-17T21:12:44.527Z,58.80
2019-02-17T21:15:15.579Z,59.10
2019-02-17T21:17:44.278Z,59.00
2019-02-17T21:20:13.242Z,59.20
2019-02-17T21:22:41.893Z,59.10
2019-02-17T21:25:11.906Z,59.10
2019-02-17T21:27:40.570Z,58.90
2019-02-17T21:30:11.962Z,58.90
2019-02-17T21:32:40.667Z,58.80
2019-02-17T21:35:11.802Z,58.50
2019-02-17T21:37:40.436Z,58.70
2019-02-17T21:40:11.033Z,58.60
2019-02-17T21:42:39.615Z,58.50
2019-02-17T21:45:13.965Z,59.00
2019-02-17T21:47:42.585Z,59.20
2019-02-17T21:50:12.425Z,59.20
2019-02-17T21:52:41.958Z,59.00
2019-02-17T21:55:14.869Z,59.00
2019-02-17T21:57:43.982Z,59.20
2019-02-17T22:00:19.303Z,59.40
2019-02-17T22:02:47.984Z,59.10
2019-02-17T22:05:16.599Z,59.60
2019-02-17T22:07:45.329Z,59.50
2019-02-17T22:10:17.934Z,59.70
2019-02-17T22:12:46.593Z,60.00
2019-02-17T22:15:17.866Z,60.50
2019-02-17T22:17:46.548Z,60.50
2019-02-17T22:20:15.168Z,61.50
2019-02-17T22:22:43.874Z,61.50
2019-02-17T22:25:14.092Z,61.60
2019-02-17T22:27:42.731Z,62.60
2019-02-17T22:30:13.043Z,61.90
2019-02-17T22:32:41.695Z,61.60
2019-02-17T22:35:10.342Z,62.10
2019-02-17T22:37:39.038Z,61.60
2019-02-17T22:40:13.846Z,61.10
2019-02-17T22:42:42.559Z,61.30
2019-02-17T22:45:12.112Z,61.30
2019-02-17T22:47:40.755Z,62.20
2019-02-17T22:50:13.883Z,62.10
2019-02-17T22:52:42.513Z,62.30
2019-02-17T22:55:12.359Z,62.50
2019-02-17T22:57:41.049Z,62.40
2019-02-17T23:00:30.534Z,62.70
2019-02-17T23:02:59.253Z,63.00
2019-02-17T23:05:27.890Z,63.10
2019-02-17T23:07:56.551Z,63.00
2019-02-17T23:10:25.228Z,63.00
2019-02-17T23:12:53.893Z,63.20
2019-02-17T23:15:22.544Z,63.40
2019-02-17T23:17:51.251Z,62.80
2019-02-17T23:20:19.961Z,62.60
2019-02-17T23:22:48.560Z,62.70
2019-02-17T23:25:17.250Z,62.20
2019-02-17T23:27:46.009Z,62.50
2019-02-17T23:30:14.646Z,63.40
2019-02-17T23:32:43.356Z,62.80
2019-02-17T23:35:12.001Z,63.20
2019-02-17T23:37:40.574Z,63.10
2019-02-17T23:40:13.151Z,63.00
2019-02-17T23:42:41.798Z,63.00
2019-02-17T23:45:12.257Z,62.60
2019-02-17T23:47:40.972Z,62.70
2019-02-17T23:50:11.412Z,62.20
2019-02-17T23:52:40.060Z,62.50
2019-02-17T23:55:10.078Z,62.30
2019-02-17T23:57:38.739Z,62.30
